createdAt,value
2019-03-16T00:00:38.878Z,3.55
2019-03-16T00:03:10.250Z,3.58
2019-03-16T00:05:41.445Z,3.58
2019-03-16T00:08:12.647Z,3.58
2019-03-16T00:10:44.014Z,3.59
2019-03-16T00:13:16.241Z,3.65
2019-03-16T00:15:47.757Z,3.70
2019-03-16T00:18:19.054Z,3.78
2019-03-16T00:20:50.352Z,3.71
2019-03-16T00:23:21.745Z,3.64
2019-03-16T00:25:53.003Z,3.57
2019-03-16T00:28:24.367Z,3.69
2019-03-16T00:30:55.615Z,3.72
2019-03-16T00:33:26.925Z,3.88
2019-03-16T00:35:58.243Z,3.91
2019-03-16T00:38:29.537Z,3.78
2019-03-16T00:41:00.783Z,3.83
2019-03-16T00:43:32.115Z,3.86
2019-03-16T00:46:03.510Z,3.96
2019-03-16T00:48:34.834Z,4.02
2019-03-16T00:51:06.255Z,3.94
2019-03-16T00:53:37.522Z,4.01
2019-03-16T00:56:08.910Z,3.99
2019-03-16T00:58:40.357Z,3.74
2019-03-16T01:01:11.542Z,3.78
2019-03-16T01:03:42.731Z,3.81
2019-03-16T01:06:14.128Z,3.72
2019-03-16T01:08:45.400Z,3.93
2019-03-16T01:11:16.718Z,3.84
2019-03-16T01:13:47.988Z,3.63
2019-03-16T01:16:19.257Z,3.67
2019-03-16T01:18:50.587Z,3.72
2019-03-16T01:21:21.932Z,3.65
2019-03-16T01:23:53.275Z,3.66
2019-03-16T01:26:24.630Z,3.61
2019-03-16T01:28:55.956Z,3.61
2019-03-16T01:31:27.297Z,3.70
2019-03-16T01:33:58.943Z,3.73
2019-03-16T01:36:30.349Z,3.71
2019-03-16T01:39:01.652Z,3.88
2019-03-16T01:41:34.647Z,3.57
2019-03-16T01:44:05.971Z,3.58
2019-03-16T01:46:37.308Z,3.70
2019-03-16T01:49:08.700Z,3.70
2019-03-16T01:51:40.060Z,3.78
2019-03-16T01:54:11.458Z,3.72
2019-03-16T01:56:42.781Z,3.49
2019-03-16T01:59:14.100Z,3.55
2019-03-16T02:01:45.470Z,3.83
2019-03-16T02:04:16.793Z,3.72
2019-03-16T02:06:48.112Z,3.57
2019-03-16T02:09:19.471Z,3.58
2019-03-16T02:11:50.849Z,3.61
2019-03-16T02:14:22.163Z,3.53
2019-03-16T02:16:53.537Z,3.70
2019-03-16T02:19:24.823Z,3.78
2019-03-16T02:21:55.990Z,3.86
2019-03-16T02:24:27.303Z,3.75
2019-03-16T02:26:58.603Z,3.62
2019-03-16T02:29:29.987Z,3.57
2019-03-16T02:32:01.387Z,3.60
2019-03-16T02:34:32.740Z,3.56
2019-03-16T02:37:04.052Z,3.73
2019-03-16T02:39:35.415Z,3.48
2019-03-16T02:42:06.730Z,3.62
2019-03-16T02:44:38.030Z,3.53
2019-03-16T02:47:09.266Z,3.64
2019-03-16T02:49:40.610Z,3.64
2019-03-16T02:52:12.031Z,3.66
2019-03-16T02:54:43.445Z,3.48
2019-03-16T02:57:14.677Z,3.48
2019-03-16T02:59:45.927Z,3.41
2019-03-16T03:02:17.240Z,3.42
2019-03-16T03:04:48.608Z,3.39
2019-03-16T03:07:19.881Z,3.30
2019-03-16T03:09:51.207Z,3.17
2019-03-16T03:12:22.610Z,2.96
2019-03-16T03:14:54.078Z,2.99
2019-03-16T03:17:25.307Z,2.75
2019-03-16T03:19:56.622Z,2.74
2019-03-16T03:22:27.985Z,2.72
2019-03-16T03:24:59.339Z,2.66
2019-03-16T03:27:30.675Z,2.68
2019-03-16T03:30:02.169Z,2.45
2019-03-16T03:32:33.529Z,2.61
2019-03-16T03:35:06.150Z,2.56
2019-03-16T03:37:37.503Z,2.53
2019-03-16T03:40:10.294Z,2.28
2019-03-16T03:42:41.619Z,2.37
2019-03-16T03:45:14.198Z,2.52
2019-03-16T03:47:44.871Z,2.32
2019-03-16T03:50:16.188Z,2.48
2019-03-16T03:52:47.505Z,2.47
2019-03-16T03:55:18.831Z,2.40
2019-03-16T03:57:50.159Z,2.41
2019-03-16T04:00:21.575Z,2.40
2019-03-16T04:02:52.732Z,2.28
2019-03-16T04:05:24.143Z,2.37
2019-03-16T04:07:56.519Z,2.24
2019-03-16T04:10:27.812Z,2.26
2019-03-16T04:12:59.123Z,2.24
2019-03-16T04:15:30.377Z,2.12
2019-03-16T04:18:02.178Z,2.18
2019-03-16T04:20:33.434Z,2.34
2019-03-16T04:23:04.760Z,2.27
2019-03-16T04:25:35.901Z,2.25
2019-03-16T04:28:07.195Z,2.34
2019-03-16T04:30:38.429Z,2.34
2019-03-16T04:33:10.125Z,2.22
2019-03-16T04:35:41.327Z,2.19
2019-03-16T04:38:12.623Z,2.24
2019-03-16T04:40:44.803Z,2.39
2019-03-16T04:43:16.064Z,2.33
2019-03-16T04:45:47.407Z,2.19
2019-03-16T04:48:18.721Z,2.26
2019-03-16T04:50:50.230Z,2.22
2019-03-16T04:53:22.095Z,2.35
2019-03-16T04:55:53.423Z,2.30
2019-03-16T04:58:24.761Z,2.28
2019-03-16T05:00:55.994Z,2.45
2019-03-16T05:03:27.333Z,2.68
2019-03-16T05:05:58.601Z,2.83
2019-03-16T05:08:29.894Z,2.93
2019-03-16T05:11:01.201Z,3.22
2019-03-16T05:13:32.572Z,3.48
2019-03-16T05:16:03.875Z,3.50
2019-03-16T05:18:35.128Z,3.65
2019-03-16T05:21:06.450Z,3.65
2019-03-16T05:23:37.883Z,4.01
2019-03-16T05:26:09.296Z,4.22
2019-03-16T05:28:40.684Z,4.38
2019-03-16T05:31:11.928Z,4.52
2019-03-16T05:33:43.084Z,4.62
2019-03-16T05:36:14.450Z,4.94
2019-03-16T05:38:45.810Z,4.97
2019-03-16T05:41:17.080Z,4.99
2019-03-16T05:43:48.455Z,5.08
2019-03-16T05:46:19.852Z,5.19
2019-03-16T05:48:51.142Z,5.24
2019-03-16T05:51:22.473Z,5.33
2019-03-16T05:53:53.840Z,5.73
2019-03-16T05:56:25.178Z,5.53
2019-03-16T05:58:56.551Z,5.59
2019-03-16T06:01:27.792Z,5.77
2019-03-16T06:03:59.229Z,5.76
2019-03-16T06:06:30.561Z,5.76
2019-03-16T06:09:01.952Z,5.66
2019-03-16T06:11:33.431Z,6.13
2019-03-16T06:14:04.867Z,6.05
2019-03-16T06:16:36.163Z,6.00
2019-03-16T06:19:07.586Z,6.32
2019-03-16T06:21:38.939Z,6.60
2019-03-16T06:24:10.293Z,6.61
2019-03-16T06:26:41.705Z,6.66
2019-03-16T06:29:13.144Z,6.89
2019-03-16T06:31:44.567Z,7.10
2019-03-16T06:34:15.964Z,7.28
2019-03-16T06:36:47.358Z,7.28
2019-03-16T06:39:18.747Z,7.43
2019-03-16T06:41:50.012Z,7.40
2019-03-16T06:44:21.274Z,7.92
2019-03-16T06:46:53.176Z,8.13
2019-03-16T06:49:24.486Z,8.10
2019-03-16T06:51:55.841Z,7.94
2019-03-16T06:54:27.269Z,8.26
2019-03-16T06:56:58.647Z,8.37
2019-03-16T06:59:29.913Z,8.90
2019-03-16T07:02:01.253Z,8.42
2019-03-16T07:04:32.669Z,8.41
2019-03-16T07:07:04.096Z,8.51
2019-03-16T07:09:35.417Z,8.40
2019-03-16T07:12:06.710Z,8.87
2019-03-16T07:14:38.083Z,9.01
2019-03-16T07:17:09.311Z,9.04
2019-03-16T07:19:40.696Z,9.16
2019-03-16T07:22:12.063Z,9.10
2019-03-16T07:24:43.460Z,9.40
2019-03-16T07:27:25.630Z,9.76
2019-03-16T07:29:47.844Z,9.82
2019-03-16T07:32:19.182Z,9.99
2019-03-16T07:34:50.489Z,9.75
2019-03-16T07:37:21.798Z,9.72
2019-03-16T07:39:53.082Z,9.69
2019-03-16T07:42:24.429Z,10.00
2019-03-16T07:45:07.467Z,10.07
2019-03-16T07:47:28.867Z,10.50
2019-03-16T07:50:00.389Z,10.44
2019-03-16T07:52:31.796Z,10.33
2019-03-16T07:55:05.016Z,10.61
2019-03-16T07:57:40.422Z,10.76
2019-03-16T08:00:11.275Z,10.75
2019-03-16T08:02:42.479Z,10.90
2019-03-16T08:05:18.511Z,10.75
2019-03-16T08:07:46.842Z,10.53
2019-03-16T08:10:18.159Z,10.48
2019-03-16T08:12:49.496Z,10.47
2019-03-16T08:15:20.870Z,10.74
2019-03-16T08:17:52.160Z,10.80
2019-03-16T08:20:23.535Z,10.71
2019-03-16T08:22:54.852Z,10.62
2019-03-16T08:25:26.281Z,11.21
2019-03-16T08:27:57.449Z,11.51
2019-03-16T08:30:28.473Z,11.15
2019-03-16T08:32:59.810Z,10.68
2019-03-16T08:35:32.252Z,11.26
2019-03-16T08:38:03.454Z,11.74
2019-03-16T08:40:34.848Z,11.95
2019-03-16T08:43:07.302Z,11.83
2019-03-16T08:45:38.702Z,11.54
2019-03-16T08:48:22.215Z,11.47
2019-03-16T08:50:43.248Z,11.36
2019-03-16T08:53:15.238Z,11.39
2019-03-16T08:55:46.762Z,11.57
2019-03-16T08:58:18.081Z,11.97
2019-03-16T09:00:49.399Z,11.81
2019-03-16T09:03:20.782Z,11.38
2019-03-16T09:05:52.246Z,12.07
2019-03-16T09:08:23.625Z,11.96
2019-03-16T09:10:55.165Z,11.71
2019-03-16T09:13:26.557Z,11.77
2019-03-16T09:15:57.963Z,11.29
2019-03-16T09:18:29.362Z,11.58
2019-03-16T09:21:00.715Z,11.77
2019-03-16T09:23:32.104Z,11.33
2019-03-16T09:26:03.504Z,11.13
2019-03-16T09:28:34.809Z,10.93
2019-03-16T09:31:06.167Z,11.68
2019-03-16T09:33:37.550Z,12.00
2019-03-16T09:36:08.872Z,12.46
2019-03-16T09:38:40.187Z,12.47
2019-03-16T09:41:11.590Z,12.43
2019-03-16T09:43:42.858Z,12.50
2019-03-16T09:46:14.226Z,12.67
2019-03-16T09:48:45.656Z,12.57
2019-03-16T09:51:17.091Z,12.85
2019-03-16T09:53:48.446Z,12.81
2019-03-16T09:56:19.789Z,13.00
2019-03-16T09:58:50.897Z,13.18
2019-03-16T10:01:22.215Z,12.91
2019-03-16T10:03:53.682Z,12.83
2019-03-16T10:06:25.017Z,13.13
2019-03-16T10:08:56.320Z,12.73
2019-03-16T10:11:27.592Z,12.93
2019-03-16T10:13:58.726Z,13.10
2019-03-16T10:16:30.214Z,13.10
2019-03-16T10:19:01.524Z,13.30
2019-03-16T10:21:32.788Z,13.28
2019-03-16T10:24:04.061Z,13.23
2019-03-16T10:26:37.560Z,13.52
2019-03-16T10:29:08.463Z,13.30
2019-03-16T10:31:39.722Z,13.25
2019-03-16T10:34:10.997Z,13.06
2019-03-16T10:36:42.356Z,13.13
2019-03-16T10:39:13.696Z,13.21
2019-03-16T10:41:45.131Z,13.32
2019-03-16T10:44:16.455Z,13.44
2019-03-16T10:46:47.779Z,13.30
2019-03-16T10:49:19.052Z,13.21
2019-03-16T10:51:50.461Z,13.04
2019-03-16T10:54:21.699Z,13.31
2019-03-16T10:56:53.123Z,13.44
2019-03-16T10:59:24.537Z,13.35
2019-03-16T11:01:55.970Z,13.47
2019-03-16T11:04:28.266Z,13.60
2019-03-16T11:06:59.650Z,13.35
2019-03-16T11:09:31.049Z,13.76
2019-03-16T11:12:02.587Z,13.26
2019-03-16T11:14:33.989Z,13.52
2019-03-16T11:17:05.343Z,13.82
2019-03-16T11:19:36.742Z,13.74
2019-03-16T11:22:08.130Z,13.77
2019-03-16T11:24:39.476Z,13.59
2019-03-16T11:27:10.724Z,13.81
2019-03-16T11:29:42.089Z,13.90
2019-03-16T11:32:13.462Z,14.27
2019-03-16T11:34:45.212Z,13.91
2019-03-16T11:37:16.789Z,14.04
2019-03-16T11:39:48.164Z,13.86
2019-03-16T11:42:19.474Z,13.53
2019-03-16T11:44:50.732Z,13.59
2019-03-16T11:47:21.989Z,13.76
2019-03-16T11:49:53.300Z,13.90
2019-03-16T11:52:24.687Z,14.14
2019-03-16T11:54:56.067Z,14.50
2019-03-16T11:57:27.483Z,14.31
2019-03-16T11:59:58.712Z,14.40
2019-03-16T12:02:30.076Z,14.03
2019-03-16T12:05:02.258Z,14.34
2019-03-16T12:07:33.703Z,13.90
2019-03-16T12:10:07.582Z,14.11
2019-03-16T12:12:38.859Z,14.52
2019-03-16T12:15:11.611Z,14.62
2019-03-16T12:17:43.016Z,14.26
2019-03-16T12:20:18.707Z,14.16
2019-03-16T12:22:50.263Z,13.96
2019-03-16T12:25:21.614Z,14.11
2019-03-16T12:27:52.963Z,13.85
2019-03-16T12:30:24.326Z,13.94
2019-03-16T12:32:55.610Z,13.88
2019-03-16T12:35:26.980Z,13.55
2019-03-16T12:37:58.301Z,13.79
2019-03-16T12:40:29.711Z,13.53
2019-03-16T12:43:01.059Z,13.69
2019-03-16T12:45:32.367Z,13.66
2019-03-16T12:48:03.681Z,13.25
2019-03-16T12:50:34.579Z,12.90
2019-03-16T12:53:05.889Z,12.82
2019-03-16T12:55:37.188Z,12.83
2019-03-16T12:58:08.454Z,12.83
2019-03-16T13:00:39.837Z,12.80
2019-03-16T13:03:11.229Z,12.54
2019-03-16T13:05:42.565Z,12.60
2019-03-16T13:08:13.885Z,12.49
2019-03-16T13:10:45.191Z,12.43
2019-03-16T13:13:16.582Z,12.38
2019-03-16T13:15:47.991Z,12.68
2019-03-16T13:18:19.347Z,12.37
2019-03-16T13:20:50.726Z,12.70
2019-03-16T13:23:21.914Z,12.31
2019-03-16T13:25:53.257Z,12.45
2019-03-16T13:28:24.553Z,12.43
2019-03-16T13:30:56.313Z,12.34
2019-03-16T13:33:27.665Z,12.37
2019-03-16T13:35:59.032Z,12.14
2019-03-16T13:38:30.414Z,12.31
2019-03-16T13:41:01.719Z,12.28
2019-03-16T13:43:32.961Z,12.45
2019-03-16T13:46:04.321Z,12.41
2019-03-16T13:48:35.739Z,12.34
2019-03-16T13:51:07.070Z,12.49
2019-03-16T13:53:38.365Z,12.57
2019-03-16T13:56:09.966Z,12.54
2019-03-16T13:58:41.216Z,12.39
2019-03-16T14:01:12.487Z,12.24
2019-03-16T14:03:43.870Z,12.24
2019-03-16T14:06:15.369Z,12.05
2019-03-16T14:08:46.706Z,12.05
2019-03-16T14:11:18.076Z,12.06
2019-03-16T14:13:49.437Z,12.16
2019-03-16T14:16:21.096Z,12.07
2019-03-16T14:18:52.283Z,12.05
2019-03-16T14:21:23.620Z,11.84
2019-03-16T14:23:56.087Z,11.84
2019-03-16T14:26:27.388Z,11.85
2019-03-16T14:28:58.735Z,11.86
2019-03-16T14:31:30.046Z,11.86
2019-03-16T14:34:01.675Z,11.74
2019-03-16T14:36:32.926Z,11.75
2019-03-16T14:39:06.424Z,11.85
2019-03-16T14:41:37.675Z,11.74
2019-03-16T14:44:09.156Z,11.92
2019-03-16T14:46:40.506Z,11.80
2019-03-16T14:49:11.845Z,11.85
2019-03-16T14:51:43.137Z,11.72
2019-03-16T14:54:14.459Z,11.66
2019-03-16T14:56:45.936Z,11.61
2019-03-16T14:59:17.190Z,11.59
2019-03-16T15:01:48.572Z,11.71
2019-03-16T15:04:19.866Z,11.57
2019-03-16T15:06:51.236Z,11.40
2019-03-16T15:09:22.612Z,11.38
2019-03-16T15:11:53.979Z,11.23
2019-03-16T15:14:25.286Z,11.00
2019-03-16T15:16:56.550Z,11.21
2019-03-16T15:19:27.874Z,11.18
2019-03-16T15:21:59.285Z,11.30
2019-03-16T15:24:30.549Z,11.20
2019-03-16T15:27:01.901Z,11.08
2019-03-16T15:29:33.208Z,11.02
2019-03-16T15:32:04.448Z,11.08
2019-03-16T15:34:35.774Z,11.21
2019-03-16T15:37:07.214Z,11.18
2019-03-16T15:39:38.539Z,11.15
2019-03-16T15:42:10.759Z,11.11
2019-03-16T15:44:42.804Z,11.10
2019-03-16T15:47:14.100Z,11.09
2019-03-16T15:49:45.377Z,11.23
2019-03-16T15:52:16.817Z,11.06
2019-03-16T15:54:48.077Z,10.99
2019-03-16T15:57:19.397Z,11.03
2019-03-16T15:59:50.712Z,11.06
2019-03-16T16:02:21.960Z,11.02
2019-03-16T16:04:53.208Z,10.91
2019-03-16T16:07:24.552Z,11.01
2019-03-16T16:09:55.840Z,10.91
2019-03-16T16:12:27.033Z,10.86
2019-03-16T16:14:58.386Z,10.85
2019-03-16T16:17:29.931Z,10.97
2019-03-16T16:20:01.282Z,10.93
2019-03-16T16:22:32.673Z,10.87
2019-03-16T16:25:04.632Z,10.81
2019-03-16T16:27:35.296Z,10.76
2019-03-16T16:30:15.416Z,10.76
2019-03-16T16:32:46.851Z,10.79
2019-03-16T16:35:20.463Z,10.75
2019-03-16T16:37:51.815Z,10.63
2019-03-16T16:40:23.187Z,10.87
2019-03-16T16:42:54.583Z,10.79
2019-03-16T16:45:25.864Z,10.83
2019-03-16T16:47:57.121Z,10.77
2019-03-16T16:50:28.327Z,10.77
2019-03-16T16:52:59.690Z,10.71
2019-03-16T16:55:31.079Z,10.77
2019-03-16T16:58:02.467Z,10.73
2019-03-16T17:00:34.021Z,10.68
2019-03-16T17:03:05.861Z,10.69
2019-03-16T17:05:37.312Z,10.77
2019-03-16T17:08:08.649Z,10.78
2019-03-16T17:10:40.055Z,10.72
2019-03-16T17:13:11.457Z,10.68
2019-03-16T17:15:42.794Z,10.49
2019-03-16T17:18:14.213Z,10.51
2019-03-16T17:20:45.635Z,10.26
2019-03-16T17:23:16.922Z,10.28
2019-03-16T17:25:49.384Z,10.22
2019-03-16T17:28:20.746Z,10.10
2019-03-16T17:30:52.097Z,10.15
2019-03-16T17:33:23.452Z,10.11
2019-03-16T17:35:54.885Z,9.86
2019-03-16T17:38:26.245Z,9.86
2019-03-16T17:40:57.526Z,9.70
2019-03-16T17:43:29.007Z,9.48
2019-03-16T17:46:00.424Z,9.25
2019-03-16T17:48:31.670Z,9.12
2019-03-16T17:51:03.040Z,8.71
2019-03-16T17:53:34.436Z,8.79
2019-03-16T17:56:05.758Z,8.49
2019-03-16T17:58:37.066Z,8.32
2019-03-16T18:01:08.434Z,8.31
2019-03-16T18:03:39.758Z,8.33
2019-03-16T18:06:11.001Z,8.02
2019-03-16T18:08:42.313Z,7.88
2019-03-16T18:11:13.585Z,7.91
2019-03-16T18:13:45.509Z,7.87
2019-03-16T18:16:16.762Z,8.00
2019-03-16T18:18:48.143Z,7.85
2019-03-16T18:21:19.405Z,7.90
2019-03-16T18:23:50.798Z,7.90
2019-03-16T18:26:22.184Z,7.83
2019-03-16T18:28:53.543Z,7.82
2019-03-16T18:31:24.895Z,7.90
2019-03-16T18:33:56.123Z,7.65
2019-03-16T18:36:27.502Z,7.80
2019-03-16T18:38:58.544Z,7.78
2019-03-16T18:41:29.802Z,7.81
2019-03-16T18:44:01.142Z,7.72
2019-03-16T18:46:32.428Z,7.73
2019-03-16T18:49:03.686Z,7.75
2019-03-16T18:51:35.000Z,7.60
2019-03-16T18:54:06.256Z,7.61
2019-03-16T18:56:37.575Z,7.55
2019-03-16T18:59:09.344Z,7.59
2019-03-16T19:01:41.023Z,7.51
2019-03-16T19:04:12.318Z,7.47
2019-03-16T19:06:43.632Z,7.36
2019-03-16T19:09:14.925Z,7.43
2019-03-16T19:11:46.243Z,7.10
2019-03-16T19:14:17.623Z,7.40
2019-03-16T19:16:48.893Z,7.15
2019-03-16T19:19:20.180Z,7.05
2019-03-16T19:21:51.529Z,7.25
2019-03-16T19:24:23.943Z,7.39
2019-03-16T19:26:55.284Z,7.46
2019-03-16T19:29:26.661Z,7.33
2019-03-16T19:31:58.035Z,7.30
2019-03-16T19:34:29.369Z,7.25
2019-03-16T19:37:00.568Z,7.33
2019-03-16T19:39:31.929Z,7.16
2019-03-16T19:42:03.229Z,7.22
2019-03-16T19:44:34.606Z,7.24
2019-03-16T19:47:05.966Z,7.11
2019-03-16T19:49:37.268Z,7.22
2019-03-16T19:52:08.667Z,7.18
2019-03-16T19:54:39.984Z,7.01
2019-03-16T19:57:16.244Z,7.16
2019-03-16T19:59:44.322Z,7.12
2019-03-16T20:02:15.669Z,7.04
2019-03-16T20:04:47.118Z,7.05
2019-03-16T20:07:19.588Z,7.15
2019-03-16T20:09:51.459Z,7.13
2019-03-16T20:12:22.797Z,7.21
2019-03-16T20:14:54.124Z,7.22
2019-03-16T20:17:25.422Z,7.13
2019-03-16T20:19:56.874Z,7.02
2019-03-16T20:22:28.301Z,7.05
2019-03-16T20:24:59.619Z,7.27
2019-03-16T20:27:31.046Z,7.27
2019-03-16T20:30:02.421Z,7.29
2019-03-16T20:32:35.037Z,7.29
2019-03-16T20:35:08.178Z,7.33
2019-03-16T20:37:39.564Z,7.28
2019-03-16T20:40:15.286Z,7.24
2019-03-16T20:42:46.600Z,7.35
2019-03-16T20:45:18.154Z,7.36
2019-03-16T20:47:49.486Z,7.53
2019-03-16T20:50:21.044Z,7.34
2019-03-16T20:52:52.396Z,7.40
2019-03-16T20:55:23.650Z,7.35
2019-03-16T20:57:55.046Z,7.21
2019-03-16T21:00:26.423Z,7.17
2019-03-16T21:02:57.801Z,7.06
2019-03-16T21:05:29.170Z,7.08
2019-03-16T21:08:00.544Z,7.01
2019-03-16T21:10:31.926Z,7.12
2019-03-16T21:13:03.271Z,7.10
2019-03-16T21:15:34.662Z,7.08
2019-03-16T21:18:06.031Z,7.15
2019-03-16T21:20:37.216Z,7.05
2019-03-16T21:23:08.604Z,7.03
2019-03-16T21:25:39.999Z,7.10
2019-03-16T21:28:11.330Z,6.92
2019-03-16T21:30:42.655Z,7.04
2019-03-16T21:33:15.058Z,6.95
2019-03-16T21:35:46.363Z,7.11
2019-03-16T21:38:17.832Z,6.98
2019-03-16T21:40:49.279Z,7.09
2019-03-16T21:43:20.683Z,6.97
2019-03-16T21:45:51.919Z,7.04
2019-03-16T21:48:23.351Z,7.12
2019-03-16T21:50:54.626Z,7.08
2019-03-16T21:53:26.015Z,7.06
2019-03-16T21:55:57.422Z,7.14
2019-03-16T21:58:28.808Z,7.03
2019-03-16T22:01:00.193Z,6.95
2019-03-16T22:03:41.556Z,6.99
2019-03-16T22:06:04.593Z,6.92
2019-03-16T22:08:35.876Z,6.85
2019-03-16T22:11:07.270Z,6.94
2019-03-16T22:13:39.877Z,7.00
2019-03-16T22:16:11.925Z,6.89
2019-03-16T22:18:43.563Z,6.98
2019-03-16T22:21:14.933Z,6.93
2019-03-16T22:23:46.259Z,6.91
2019-03-16T22:26:17.567Z,6.92
2019-03-16T22:28:48.808Z,6.97
2019-03-16T22:31:20.127Z,6.93
2019-03-16T22:33:54.752Z,6.93
2019-03-16T22:36:25.628Z,6.87
2019-03-16T22:38:56.883Z,6.77
2019-03-16T22:41:28.230Z,6.78
2019-03-16T22:43:59.494Z,6.89
2019-03-16T22:46:30.810Z,6.95
2019-03-16T22:49:02.089Z,6.97
2019-03-16T22:51:33.300Z,6.86
2019-03-16T22:54:04.564Z,6.90
2019-03-16T22:56:35.862Z,6.94
2019-03-16T22:59:07.257Z,7.07
2019-03-16T23:01:38.564Z,6.93
2019-03-16T23:04:09.986Z,6.81
2019-03-16T23:06:41.408Z,6.89
2019-03-16T23:09:12.790Z,6.71
2019-03-16T23:11:44.190Z,6.82
2019-03-16T23:14:15.583Z,6.73
2019-03-16T23:16:48.228Z,6.72
2019-03-16T23:19:19.623Z,6.73
2019-03-16T23:21:50.944Z,6.64
2019-03-16T23:24:22.271Z,6.40
2019-03-16T23:26:53.500Z,6.52
2019-03-16T23:29:24.734Z,6.38
2019-03-16T23:31:56.137Z,6.39
2019-03-16T23:34:27.515Z,6.35
2019-03-16T23:37:00.003Z,6.20
2019-03-16T23:39:31.255Z,6.25
2019-03-16T23:42:02.652Z,6.14
2019-03-16T23:44:34.073Z,6.05
2019-03-16T23:47:05.789Z,5.94
2019-03-16T23:49:38.093Z,6.06
2019-03-16T23:52:09.472Z,6.17
2019-03-16T23:54:40.738Z,6.18
2019-03-16T23:57:12.064Z,6.06
2019-03-16T23:59:43.593Z,5.87
